createdAt,value
2023-04-08T00:01:38.381Z,102713.06
2023-04-08T00:04:06.576Z,102716.63
2023-04-08T00:06:34.792Z,102716.63
2023-04-08T00:09:03.489Z,102718.47
2023-04-08T00:11:31.633Z,102719.44
2023-04-08T00:14:01.362Z,102716.75
2023-04-08T00:16:29.338Z,102720.31
2023-04-08T00:18:57.723Z,102691.59
2023-04-08T00:21:27.154Z,102717.59
2023-04-08T00:23:55.468Z,102710.47
2023-04-08T00:26:23.468Z,102717.41
2023-04-08T00:28:51.658Z,102721.75
2023-04-08T00:31:21.877Z,102721.75
2023-04-08T00:33:50.078Z,102716.34
2023-04-08T00:36:19.168Z,102685.13
2023-04-08T00:38:47.361Z,102721.63
2023-04-08T00:41:15.875Z,102720.66
2023-04-08T00:43:43.922Z,102721.63
2023-04-08T00:46:12.114Z,102728.78
2023-04-08T00:48:41.589Z,102728.00
2023-04-08T00:51:09.761Z,102712.84
2023-04-08T00:53:38.128Z,102677.50
2023-04-08T00:56:06.331Z,102719.31
2023-04-08T00:58:34.566Z,102719.13
2023-04-08T01:01:09.168Z,102713.84
2023-04-08T01:03:51.083Z,102724.53
2023-04-08T01:06:27.420Z,102726.47
2023-04-08T01:08:55.481Z,102721.06
2023-04-08T01:11:23.952Z,102701.75
2023-04-08T01:13:56.333Z,102726.28
2023-04-08T01:16:26.357Z,102727.16
2023-04-08T01:18:56.302Z,102727.03
2023-04-08T01:21:25.829Z,102730.50
2023-04-08T01:24:03.127Z,102729.41
2023-04-08T01:26:33.554Z,102717.19
2023-04-08T01:29:04.555Z,102724.13
2023-04-08T01:31:33.586Z,102726.06
2023-04-08T01:34:04.702Z,102727.78
2023-04-08T01:36:33.747Z,102724.13
2023-04-08T01:39:05.567Z,102723.38
2023-04-08T01:41:38.444Z,102725.28
2023-04-08T01:44:07.074Z,102726.28
2023-04-08T01:46:36.130Z,102729.72
2023-04-08T01:49:06.873Z,102647.50
2023-04-08T01:51:38.917Z,102734.25
2023-04-08T01:54:07.104Z,102735.53
2023-04-08T01:56:40.412Z,102729.94
2023-04-08T01:59:14.745Z,102740.75
2023-04-08T02:01:45.030Z,102739.88
2023-04-08T02:04:14.663Z,102744.44
2023-04-08T02:06:42.885Z,102739.88
2023-04-08T02:09:11.153Z,102747.22
2023-04-08T02:11:40.582Z,102741.94
2023-04-08T02:14:08.618Z,102741.06
2023-04-08T02:16:43.988Z,102741.19
2023-04-08T02:19:19.396Z,102707.13
2023-04-08T02:21:51.399Z,102738.91
2023-04-08T02:24:21.602Z,102739.78
2023-04-08T02:26:52.335Z,102681.38
2023-04-08T02:29:20.533Z,102741.75
2023-04-08T02:31:50.050Z,102737.28
2023-04-08T02:34:19.378Z,102733.13
2023-04-08T02:36:48.028Z,102747.13
2023-04-08T02:39:17.832Z,102743.44
2023-04-08T02:41:50.862Z,102744.44
2023-04-08T02:44:18.821Z,102738.16
2023-04-08T02:46:46.879Z,102748.09
2023-04-08T02:49:14.887Z,102749.84
2023-04-08T02:51:42.848Z,102750.81
2023-04-08T02:54:10.899Z,102745.41
2023-04-08T02:56:38.893Z,102746.34
2023-04-08T02:59:08.512Z,102740.09
2023-04-08T03:01:36.670Z,102742.69
2023-04-08T03:04:04.761Z,102750.69
2023-04-08T03:06:32.930Z,102745.19
2023-04-08T03:09:00.956Z,102749.59
2023-04-08T03:11:28.992Z,102755.00
2023-04-08T03:13:56.950Z,102757.84
2023-04-08T03:16:26.432Z,102753.94
2023-04-08T03:18:54.483Z,102755.69
2023-04-08T03:21:22.581Z,102753.09
2023-04-08T03:23:50.570Z,102759.16
2023-04-08T03:26:18.544Z,102758.28
2023-04-08T03:28:46.428Z,102755.38
2023-04-08T03:31:14.746Z,102753.53
2023-04-08T03:33:44.191Z,102716.22
2023-04-08T03:36:12.230Z,102758.06
2023-04-08T03:38:40.100Z,102763.41
2023-04-08T03:41:08.031Z,102754.41
2023-04-08T03:43:37.932Z,102761.66
2023-04-08T03:46:06.176Z,102770.75
2023-04-08T03:48:34.217Z,102767.06
2023-04-08T03:51:03.528Z,102762.53
2023-04-08T03:53:31.606Z,102755.69
2023-04-08T03:56:01.498Z,102770.44
2023-04-08T03:58:29.429Z,102767.72
2023-04-08T04:00:57.481Z,102771.38
2023-04-08T04:03:25.745Z,102767.81
2023-04-08T04:05:53.740Z,102776.91
2023-04-08T04:08:23.093Z,102770.63
2023-04-08T04:10:51.574Z,102771.50
2023-04-08T04:13:19.800Z,102776.78
2023-04-08T04:15:47.879Z,102781.25
2023-04-08T04:18:16.051Z,102785.78
2023-04-08T04:20:44.310Z,102757.94
2023-04-08T04:23:12.320Z,102781.56
2023-04-08T04:25:44.298Z,102789.44
2023-04-08T04:28:12.214Z,102784.34
2023-04-08T04:30:40.682Z,102789.69
2023-04-08T04:33:08.832Z,102783.47
2023-04-08T04:35:36.931Z,102786.28
2023-04-08T04:38:08.113Z,102790.06
2023-04-08T04:40:36.217Z,102781.19
2023-04-08T04:43:05.646Z,102786.69
2023-04-08T04:45:33.800Z,102785.94
2023-04-08T04:48:01.783Z,102792.22
2023-04-08T04:50:29.901Z,102780.53
2023-04-08T04:52:57.778Z,102774.25
2023-04-08T04:55:25.793Z,102793.09
2023-04-08T04:57:53.833Z,102792.22
2023-04-08T05:00:23.251Z,102793.28
2023-04-08T05:02:51.763Z,102788.75
2023-04-08T05:05:20.203Z,102793.28
2023-04-08T05:07:48.236Z,102785.41
2023-04-08T05:10:16.362Z,102729.06
2023-04-08T05:12:44.399Z,102797.63
2023-04-08T05:15:12.675Z,102814.59
2023-04-08T05:17:42.015Z,102803.78
2023-04-08T05:20:10.512Z,102807.34
2023-04-08T05:22:38.392Z,102811.88
2023-04-08T05:25:07.311Z,102808.31
2023-04-08T05:27:35.687Z,102804.75
2023-04-08T05:30:04.211Z,102803.91
2023-04-08T05:32:32.181Z,102814.59
2023-04-08T05:35:03.635Z,102810.94
2023-04-08T05:37:31.943Z,102810.81
2023-04-08T05:39:59.875Z,102816.13
2023-04-08T05:42:28.217Z,102815.03
2023-04-08T05:44:56.507Z,102815.03
2023-04-08T05:47:24.516Z,102819.28
2023-04-08T05:49:52.507Z,102816.41
2023-04-08T05:52:21.968Z,102821.69
2023-04-08T05:54:49.982Z,102811.88
2023-04-08T05:57:17.990Z,102794.81
2023-04-08T05:59:46.103Z,102818.22
2023-04-08T06:02:14.170Z,102819.09
2023-04-08T06:04:42.389Z,102818.09
2023-04-08T06:07:10.602Z,102820.81
2023-04-08T06:09:39.974Z,102742.00
2023-04-08T06:12:07.955Z,102818.09
2023-04-08T06:14:35.967Z,102830.66
2023-04-08T06:17:04.017Z,102835.97
2023-04-08T06:19:32.070Z,102827.00
2023-04-08T06:22:00.104Z,102829.72
2023-04-08T06:24:29.346Z,102835.97
2023-04-08T06:26:58.744Z,102829.47
2023-04-08T06:29:26.963Z,102835.75
2023-04-08T06:31:54.836Z,102839.22
2023-04-08T06:34:22.838Z,102829.28
2023-04-08T06:36:51.338Z,102836.44
2023-04-08T06:39:20.346Z,102838.19
2023-04-08T06:41:48.379Z,102838.06
2023-04-08T06:44:29.864Z,102838.81
2023-04-08T06:46:57.907Z,102827.25
2023-04-08T06:49:27.079Z,102836.69
2023-04-08T06:51:55.355Z,102836.38
2023-04-08T06:54:23.384Z,102843.44
2023-04-08T06:56:51.306Z,102842.56
2023-04-08T06:59:19.349Z,102844.75
2023-04-08T07:01:48.765Z,102849.09
2023-04-08T07:04:16.869Z,102848.88
2023-04-08T07:06:44.916Z,102821.88
2023-04-08T07:09:13.272Z,102839.13
2023-04-08T07:11:41.399Z,102859.31
2023-04-08T07:14:09.381Z,102855.53
2023-04-08T07:16:37.411Z,102858.13
2023-04-08T07:19:06.864Z,102845.69
2023-04-08T07:21:34.744Z,102866.06
2023-04-08T07:24:02.784Z,102859.66
2023-04-08T07:26:30.769Z,102851.97
2023-04-08T07:28:58.666Z,102867.56
2023-04-08T07:31:27.257Z,102861.28
2023-04-08T07:33:55.332Z,102865.72
2023-04-08T07:36:24.670Z,102857.63
2023-04-08T07:38:52.687Z,102863.69
2023-04-08T07:41:20.998Z,102860.00
2023-04-08T07:43:49.069Z,102868.13
2023-04-08T07:46:17.192Z,102860.00
2023-04-08T07:48:45.226Z,102869.00
2023-04-08T07:51:13.369Z,102854.78
2023-04-08T07:53:42.819Z,102831.16
2023-04-08T07:56:15.090Z,102861.41
2023-04-08T07:58:43.736Z,102865.88
2023-04-08T08:01:22.369Z,102863.91
2023-04-08T08:03:51.974Z,102861.31
2023-04-08T08:06:20.972Z,102862.19
2023-04-08T08:08:50.455Z,102872.78
2023-04-08T08:11:18.455Z,102877.13
2023-04-08T08:16:16.499Z,102865.88
2023-04-08T08:18:44.538Z,102863.72
2023-04-08T08:21:12.593Z,102838.47
2023-04-08T08:23:40.599Z,102866.09
2023-04-08T08:26:11.376Z,102866.97
2023-04-08T08:28:40.320Z,102867.84
2023-04-08T08:31:08.390Z,102867.09
2023-04-08T08:33:36.632Z,102865.91
2023-04-08T08:36:05.562Z,102868.50
2023-04-08T08:38:34.074Z,102846.41
2023-04-08T08:41:04.019Z,102860.69
2023-04-08T08:43:34.630Z,102859.72
2023-04-08T08:46:03.322Z,102871.25
2023-04-08T08:48:32.333Z,102861.69
2023-04-08T08:51:00.488Z,102867.47
2023-04-08T08:53:34.230Z,102875.28
2023-04-08T08:58:36.524Z,102866.72
2023-04-08T09:01:04.549Z,102875.69
2023-04-08T09:03:32.825Z,102868.34
2023-04-08T09:06:02.372Z,102872.56
2023-04-08T09:08:32.455Z,102865.16
2023-04-08T09:11:13.844Z,102858.66
2023-04-08T09:13:43.334Z,102877.41
2023-04-08T09:16:12.688Z,102854.88
2023-04-08T09:18:44.403Z,102860.19
2023-04-08T09:21:13.357Z,102856.75
2023-04-08T09:23:43.249Z,102859.53
2023-04-08T09:26:12.707Z,102846.88
2023-04-08T09:28:43.614Z,102835.50
2023-04-08T09:31:22.466Z,102850.13
2023-04-08T09:33:51.480Z,102863.34
2023-04-08T09:36:19.936Z,102856.97
2023-04-08T09:38:48.983Z,102857.91
2023-04-08T09:41:20.535Z,102853.91
2023-04-08T09:43:52.475Z,102811.97
2023-04-08T09:46:27.786Z,102850.88
2023-04-08T09:49:07.357Z,102843.59
2023-04-08T09:51:42.435Z,102839.63
2023-04-08T09:54:15.728Z,102845.22
2023-04-08T09:56:57.330Z,102846.09
2023-04-08T09:59:31.402Z,102851.84
2023-04-08T10:02:02.569Z,102850.31
2023-04-08T10:04:33.076Z,102853.38
2023-04-08T10:07:06.307Z,102854.34
2023-04-08T10:09:34.742Z,102841.00
2023-04-08T10:12:05.363Z,102825.84
2023-04-08T10:14:34.782Z,102845.88
2023-04-08T10:17:28.365Z,102845.13
2023-04-08T10:19:58.662Z,102843.63
2023-04-08T10:22:51.939Z,102849.81
2023-04-08T10:25:33.900Z,102815.34
2023-04-08T10:28:03.463Z,102844.81
2023-04-08T10:30:43.361Z,102843.94
2023-04-08T10:33:13.386Z,102840.59
2023-04-08T10:35:46.367Z,102833.41
2023-04-08T10:38:15.009Z,102829.94
2023-04-08T10:40:44.154Z,102833.75
2023-04-08T10:43:13.153Z,102835.56
2023-04-08T10:45:45.183Z,102829.28
2023-04-08T10:48:17.804Z,102796.47
2023-04-08T10:50:46.650Z,102818.78
2023-04-08T10:53:14.630Z,102830.59
2023-04-08T10:55:43.855Z,102827.13
2023-04-08T10:58:12.726Z,102821.91
2023-04-08T11:00:43.241Z,102815.41
2023-04-08T11:03:14.369Z,102811.97
2023-04-08T11:05:43.748Z,102824.97
2023-04-08T11:08:11.747Z,102825.06
2023-04-08T11:10:40.353Z,102817.91
2023-04-08T11:13:09.984Z,102816.28
2023-04-08T11:15:38.404Z,102821.72
2023-04-08T11:18:08.362Z,102820.94
2023-04-08T11:20:37.200Z,102819.22
2023-04-08T11:23:05.270Z,102820.28
2023-04-08T11:25:33.540Z,102831.25
2023-04-08T11:28:01.609Z,102824.19
2023-04-08T11:30:31.439Z,102813.47
2023-04-08T11:32:59.608Z,102809.47
2023-04-08T11:35:31.770Z,102788.66
2023-04-08T11:38:00.044Z,102818.13
2023-04-08T11:40:28.379Z,102807.28
2023-04-08T11:42:56.482Z,102786.81
2023-04-08T11:45:24.437Z,102820.81
2023-04-08T11:47:53.145Z,102808.25
2023-04-08T11:50:25.261Z,102814.75
2023-04-08T11:52:55.501Z,102809.25
2023-04-08T11:55:25.561Z,102804.78
2023-04-08T11:57:54.609Z,102802.28
2023-04-08T12:00:22.983Z,102797.66
2023-04-08T12:02:52.724Z,102794.28
2023-04-08T12:05:21.444Z,102794.19
2023-04-08T12:07:49.566Z,102788.75
2023-04-08T12:10:19.187Z,102794.19
2023-04-08T12:12:47.188Z,102799.59
2023-04-08T12:15:15.839Z,102781.63
2023-04-08T12:17:44.660Z,102781.97
2023-04-08T12:20:13.660Z,102785.31
2023-04-08T12:22:41.633Z,102786.19
2023-04-08T12:25:10.306Z,102780.78
2023-04-08T12:27:39.799Z,102779.91
2023-04-08T12:30:09.173Z,102758.41
2023-04-08T12:32:37.196Z,102773.59
2023-04-08T12:35:06.189Z,102779.16
2023-04-08T12:37:34.354Z,102781.84
2023-04-08T12:40:02.602Z,102770.34
2023-04-08T12:42:30.607Z,102773.06
2023-04-08T12:44:59.927Z,102771.34
2023-04-08T12:47:27.871Z,102766.03
2023-04-08T12:49:56.084Z,102759.75
2023-04-08T12:52:24.205Z,102762.44
2023-04-08T12:54:52.195Z,102756.94
2023-04-08T12:57:20.178Z,102736.78
2023-04-08T12:59:48.980Z,102747.97
2023-04-08T13:02:18.280Z,102756.09
2023-04-08T13:04:46.236Z,102758.91
2023-04-08T13:07:14.240Z,102751.75
2023-04-08T13:09:43.323Z,102723.25
2023-04-08T13:12:13.272Z,102759.19
2023-04-08T13:14:41.316Z,102752.06
2023-04-08T13:17:09.173Z,102745.88
2023-04-08T13:19:38.568Z,102733.31
2023-04-08T13:22:06.552Z,102752.25
2023-04-08T13:24:34.723Z,102750.50
2023-04-08T13:27:03.572Z,102707.34
2023-04-08T13:29:31.622Z,102713.81
2023-04-08T13:31:59.594Z,102738.94
2023-04-08T13:34:27.626Z,102739.81
2023-04-08T13:36:57.273Z,102738.06
2023-04-08T13:39:25.275Z,102733.66
2023-04-08T13:41:53.661Z,102741.56
2023-04-08T13:44:21.761Z,102736.97
2023-04-08T13:46:49.799Z,102738.94
2023-04-08T13:49:17.850Z,102744.34
2023-04-08T13:51:46.141Z,102741.75
2023-04-08T13:54:15.678Z,102739.13
2023-04-08T13:56:43.680Z,102735.69
2023-04-08T13:59:11.710Z,102731.22
2023-04-08T14:01:40.726Z,102742.16
2023-04-08T14:04:08.780Z,102737.63
2023-04-08T14:06:37.157Z,102729.59
2023-04-08T14:09:05.243Z,102724.19
2023-04-08T14:11:35.948Z,102726.06
2023-04-08T14:14:05.952Z,102732.44
2023-04-08T14:16:35.773Z,102724.31
2023-04-08T14:19:04.281Z,102722.56
2023-04-08T14:21:32.935Z,102716.41
2023-04-08T14:24:02.697Z,102715.53
2023-04-08T14:26:33.227Z,102716.53
2023-04-08T14:29:03.332Z,102722.03
2023-04-08T14:31:31.445Z,102720.31
2023-04-08T14:33:59.534Z,102710.44
2023-04-08T14:36:28.528Z,102717.59
2023-04-08T14:38:57.022Z,102716.63
2023-04-08T14:41:26.414Z,102714.91
2023-04-08T14:43:54.462Z,102699.09
2023-04-08T14:46:24.892Z,102710.66
2023-04-08T14:48:54.509Z,102707.09
2023-04-08T14:51:22.480Z,102702.75
2023-04-08T14:53:50.404Z,102702.75
2023-04-08T14:56:18.383Z,102703.84
2023-04-08T14:58:46.370Z,102701.25
2023-04-08T15:01:14.410Z,102701.34
2023-04-08T15:03:43.881Z,102696.78
2023-04-08T15:06:16.882Z,102700.50
2023-04-08T15:08:45.748Z,102703.28
2023-04-08T15:11:13.806Z,102700.56
2023-04-08T15:13:41.806Z,102697.00
2023-04-08T15:16:09.873Z,102690.75
2023-04-08T15:18:38.280Z,102694.28
2023-04-08T15:21:07.760Z,102692.59
2023-04-08T15:23:35.882Z,102689.13
2023-04-08T15:26:03.923Z,102688.25
2023-04-08T15:28:33.038Z,102688.34
2023-04-08T15:31:01.727Z,102664.44
2023-04-08T15:33:29.786Z,102687.59
2023-04-08T15:35:59.711Z,102687.72
2023-04-08T15:38:29.299Z,102688.34
2023-04-08T15:40:57.346Z,102687.59
2023-04-08T15:43:25.414Z,102680.56
2023-04-08T15:45:53.300Z,102692.38
2023-04-08T15:48:21.854Z,102687.03
2023-04-08T15:50:49.887Z,102682.59
2023-04-08T15:53:17.948Z,102685.28
2023-04-08T15:55:47.291Z,102681.75
2023-04-08T15:58:16.330Z,102689.94
2023-04-08T16:00:44.270Z,102683.66
2023-04-08T16:03:12.853Z,102682.81
2023-04-08T16:05:41.696Z,102684.66
2023-04-08T16:08:10.049Z,102675.13
2023-04-08T16:10:38.111Z,102682.16
2023-04-08T16:13:07.617Z,102681.28
2023-04-08T16:15:36.483Z,102683.13
2023-04-08T16:18:06.274Z,102684.09
2023-04-08T16:20:34.359Z,102645.06
2023-04-08T16:23:02.350Z,102684.31
2023-04-08T16:25:30.290Z,102681.59
2023-04-08T16:27:58.259Z,102684.31
2023-04-08T16:30:27.721Z,102680.72
2023-04-08T16:32:55.786Z,102684.44
2023-04-08T16:35:23.783Z,102685.44
2023-04-08T16:37:51.727Z,102687.13
2023-04-08T16:40:19.619Z,102688.13
2023-04-08T16:42:48.015Z,102687.28
2023-04-08T16:45:16.299Z,102682.72
2023-04-08T16:47:45.958Z,102686.31
2023-04-08T16:50:14.040Z,102694.31
2023-04-08T16:52:43.890Z,102686.41
2023-04-08T16:55:14.064Z,102696.47
2023-04-08T16:57:42.541Z,102703.03
2023-04-08T17:00:12.575Z,102697.84
2023-04-08T17:02:40.808Z,102707.13
2023-04-08T17:05:10.928Z,102698.53
2023-04-08T17:07:39.068Z,102705.88
2023-04-08T17:10:08.278Z,102704.38
2023-04-08T17:12:37.425Z,102705.44
2023-04-08T17:15:06.099Z,102717.31
2023-04-08T17:17:34.396Z,102710.38
2023-04-08T17:20:02.429Z,102709.59
2023-04-08T17:22:32.096Z,102720.59
2023-04-08T17:25:00.018Z,102712.69
2023-04-08T17:27:27.990Z,102695.75
2023-04-08T17:29:57.897Z,102721.22
2023-04-08T17:32:26.274Z,102720.44
2023-04-08T17:34:54.595Z,102721.59
2023-04-08T17:37:22.721Z,102709.47
2023-04-08T17:39:51.992Z,102718.34
2023-04-08T17:42:22.425Z,102720.31
2023-04-08T17:44:50.470Z,102720.50
2023-04-08T17:47:18.375Z,102709.56
2023-04-08T17:49:46.393Z,102725.34
2023-04-08T17:52:14.430Z,102724.69
2023-04-08T17:54:42.499Z,102738.44
2023-04-08T17:57:11.814Z,102735.09
2023-04-08T17:59:40.019Z,102730.25
2023-04-08T18:02:08.089Z,102733.72
2023-04-08T18:04:36.091Z,102742.03
2023-04-08T18:07:05.358Z,102739.53
2023-04-08T18:09:33.483Z,102739.72
2023-04-08T18:12:01.411Z,102743.47
2023-04-08T18:14:30.913Z,102737.31
2023-04-08T18:16:58.865Z,102744.81
2023-04-08T18:19:27.033Z,102742.31
2023-04-08T18:21:55.359Z,102743.38
2023-04-08T18:24:23.361Z,102745.38
2023-04-08T18:27:01.533Z,102742.88
2023-04-08T18:29:33.632Z,102737.66
2023-04-08T18:32:01.570Z,102747.66
2023-04-08T18:34:29.671Z,102740.63
2023-04-08T18:36:58.285Z,102749.72
2023-04-08T18:39:26.435Z,102745.41
2023-04-08T18:41:54.485Z,102750.91
2023-04-08T18:44:23.360Z,102743.78
2023-04-08T18:46:52.800Z,102747.63
2023-04-08T18:49:20.937Z,102741.25
2023-04-08T18:51:59.355Z,102748.56
2023-04-08T18:54:29.592Z,102745.19
2023-04-08T18:56:57.664Z,102737.19
2023-04-08T18:59:27.753Z,102746.34
2023-04-08T19:01:57.580Z,102744.78
2023-04-08T19:04:26.309Z,102747.47
2023-04-08T19:06:54.449Z,102751.91
2023-04-08T19:09:22.460Z,102743.06
2023-04-08T19:11:50.436Z,102747.56
2023-04-08T19:14:18.644Z,102742.53
2023-04-08T19:16:46.580Z,102742.38
2023-04-08T19:19:16.238Z,102742.47
2023-04-08T19:21:44.312Z,102754.38
2023-04-08T19:24:12.401Z,102750.72
2023-04-08T19:26:40.459Z,102754.31
2023-04-08T19:29:09.375Z,102745.44
2023-04-08T19:31:37.773Z,102750.63
2023-04-08T19:34:06.212Z,102750.56
2023-04-08T19:36:35.822Z,102744.19
2023-04-08T19:39:04.541Z,102749.50
2023-04-08T19:41:32.590Z,102745.00
2023-04-08T19:44:00.569Z,102748.53
2023-04-08T19:46:29.732Z,102724.91
2023-04-08T19:48:58.845Z,102751.91
2023-04-08T19:51:29.347Z,102750.97
2023-04-08T19:53:58.892Z,102739.59
2023-04-08T19:56:26.939Z,102749.03
2023-04-08T19:58:55.074Z,102736.69
2023-04-08T20:01:23.669Z,102750.09
2023-04-08T20:03:52.561Z,102737.84
2023-04-08T20:06:21.569Z,102741.50
2023-04-08T20:08:50.261Z,102743.00
2023-04-08T20:11:20.062Z,102744.91
2023-04-08T20:13:49.424Z,102742.78
2023-04-08T20:16:17.421Z,102748.59
2023-04-08T20:18:45.369Z,102736.28
2023-04-08T20:21:14.710Z,102722.53
2023-04-08T20:23:44.502Z,102743.31
2023-04-08T20:26:13.279Z,102743.22
2023-04-08T20:28:44.648Z,102744.78
2023-04-08T20:31:13.288Z,102738.25
2023-04-08T20:33:44.100Z,102738.16
2023-04-08T20:36:13.658Z,102736.41
2023-04-08T20:38:42.735Z,102729.97
2023-04-08T20:41:11.373Z,102743.09
2023-04-08T20:43:40.326Z,102746.56
2023-04-08T20:46:10.060Z,102743.00
2023-04-08T20:48:38.022Z,102745.44
2023-04-08T20:51:06.072Z,102746.28
2023-04-08T20:53:34.569Z,102751.59
2023-04-08T20:56:03.097Z,102747.94
2023-04-08T20:58:31.084Z,102754.13
2023-04-08T21:01:00.045Z,102712.94
2023-04-08T21:03:29.624Z,102741.25
2023-04-08T21:05:57.662Z,102739.66
2023-04-08T21:08:25.787Z,102753.66
2023-04-08T21:10:54.348Z,102752.69
2023-04-08T21:13:22.484Z,102745.47
2023-04-08T21:15:50.392Z,102757.91
2023-04-08T21:18:18.371Z,102746.16
2023-04-08T21:20:49.343Z,102759.47
2023-04-08T21:23:17.393Z,102754.91
2023-04-08T21:25:45.396Z,102756.56
2023-04-08T21:28:13.295Z,102752.91
2023-04-08T21:30:41.869Z,102759.06
2023-04-08T21:33:09.930Z,102753.59
2023-04-08T21:35:38.224Z,102747.34
2023-04-08T21:38:07.622Z,102748.09
2023-04-08T21:40:35.716Z,102737.31
2023-04-08T21:43:03.795Z,102737.94
2023-04-08T21:45:31.730Z,102738.72
2023-04-08T21:47:59.831Z,102741.50
2023-04-08T21:50:28.019Z,102740.28
2023-04-08T21:52:56.048Z,102742.78
2023-04-08T21:55:25.769Z,102745.31
2023-04-08T21:57:53.706Z,102742.50
2023-04-08T22:00:21.696Z,102745.97
2023-04-08T22:02:49.926Z,102740.75
2023-04-08T22:05:18.039Z,102732.00
2023-04-08T22:07:46.019Z,102748.28
2023-04-08T22:10:14.016Z,102744.59
2023-04-08T22:12:43.365Z,102751.69
2023-04-08T22:15:12.051Z,102748.00
2023-04-08T22:17:40.142Z,102756.84
2023-04-08T22:20:09.139Z,102752.34
2023-04-08T22:22:37.221Z,102741.84
2023-04-08T22:25:05.744Z,102753.09
2023-04-08T22:27:34.102Z,102747.91
2023-04-08T22:30:03.555Z,102757.44
2023-04-08T22:32:31.606Z,102749.44
2023-04-08T22:34:59.590Z,102755.53
2023-04-08T22:37:27.573Z,102751.28
2023-04-08T22:39:55.515Z,102758.13
2023-04-08T22:42:23.608Z,102758.13
2023-04-08T22:44:51.760Z,102755.31
2023-04-08T22:47:21.392Z,102761.69
2023-04-08T22:49:49.285Z,102761.50
2023-04-08T22:52:17.474Z,102757.00
2023-04-08T22:54:45.466Z,102753.41
2023-04-08T22:57:13.469Z,102749.72
2023-04-08T22:59:41.545Z,102741.75
2023-04-08T23:02:09.557Z,102749.84
2023-04-08T23:04:39.056Z,102746.28
2023-04-08T23:07:07.227Z,102744.44
2023-04-08T23:09:35.462Z,102750.78
2023-04-08T23:12:03.585Z,102747.22
2023-04-08T23:14:31.565Z,102749.91
2023-04-08T23:16:59.501Z,102746.38
2023-04-08T23:19:27.474Z,102748.19
2023-04-08T23:21:56.852Z,102747.22
2023-04-08T23:24:24.928Z,102747.31
2023-04-08T23:26:52.861Z,102750.97
2023-04-08T23:29:20.832Z,102708.97
2023-04-08T23:31:48.760Z,102749.16
2023-04-08T23:34:16.786Z,102744.81
2023-04-08T23:36:44.787Z,102745.69
2023-04-08T23:39:14.122Z,102744.81
2023-04-08T23:41:42.145Z,102736.84
2023-04-08T23:44:10.251Z,102737.72
2023-04-08T23:46:38.186Z,102741.25
2023-04-08T23:49:06.198Z,102740.28
2023-04-08T23:51:34.159Z,102740.41
2023-04-08T23:54:02.088Z,102729.13
2023-04-08T23:56:31.452Z,102738.56
2023-04-08T23:58:59.482Z,102732.50
